sensor_id;sensor_type;location;lat;lon;timestamp;temperature;humidity
12025;DHT22;6073;53.230;10.444;2023-11-19T00:01:56;5.50;99.90
12025;DHT22;6073;53.230;10.444;2023-11-19T00:04:22;5.40;99.90
12025;DHT22;6073;53.230;10.444;2023-11-19T00:06:48;5.40;99.90
12025;DHT22;6073;53.230;10.444;2023-11-19T00:09:13;5.40;99.90
12025;DHT22;6073;53.230;10.444;2023-11-19T00:11:42;5.50;99.90
12025;DHT22;6073;53.230;10.444;2023-11-19T00:14:07;5.40;99.90
12025;DHT22;6073;53.230;10.444;2023-11-19T00:16:34;5.50;99.90
12025;DHT22;6073;53.230;10.444;2023-11-19T00:19:00;5.50;99.90
12025;DHT22;6073;53.230;10.444;2023-11-19T00:21:25;5.40;99.90
12025;DHT22;6073;53.230;10.444;2023-11-19T00:23:54;5.40;99.90
12025;DHT22;6073;53.230;10.444;2023-11-19T00:26:19;5.40;99.90
12025;DHT22;6073;53.230;10.444;2023-11-19T00:28:45;5.50;99.90
12025;DHT22;6073;53.230;10.444;2023-11-19T00:31:12;5.50;99.90
12025;DHT22;6073;53.230;10.444;2023-11-19T00:33:38;5.50;99.90
12025;DHT22;6073;53.230;10.444;2023-11-19T00:36:05;5.50;99.90
12025;DHT22;6073;53.230;10.444;2023-11-19T00:38:30;5.40;99.90
12025;DHT22;6073;53.230;10.444;2023-11-19T00:40:56;5.50;99.90
12025;DHT22;6073;53.230;10.444;2023-11-19T00:43:21;5.50;99.90
12025;DHT22;6073;53.230;10.444;2023-11-19T00:45:47;5.50;99.90
12025;DHT22;6073;53.230;10.444;2023-11-19T00:48:15;5.50;99.90
12025;DHT22;6073;53.230;10.444;2023-11-19T00:50:41;5.50;99.90
12025;DHT22;6073;53.230;10.444;2023-11-19T00:53:09;5.50;99.90
12025;DHT22;6073;53.230;10.444;2023-11-19T00:55:35;5.50;99.90
12025;DHT22;6073;53.230;10.444;2023-11-19T00:58:00;5.50;99.90
12025;DHT22;6073;53.230;10.444;2023-11-19T01:00:26;5.50;99.90
12025;DHT22;6073;53.230;10.444;2023-11-19T01:02:52;5.50;99.90
12025;DHT22;6073;53.230;10.444;2023-11-19T01:05:19;5.50;99.90
12025;DHT22;6073;53.230;10.444;2023-11-19T01:07:48;5.40;99.90
12025;DHT22;6073;53.230;10.444;2023-11-19T01:10:13;5.50;99.90
12025;DHT22;6073;53.230;10.444;2023-11-19T01:12:41;5.50;99.90
12025;DHT22;6073;53.230;10.444;2023-11-19T01:15:07;5.50;99.90
12025;DHT22;6073;53.230;10.444;2023-11-19T01:17:33;5.60;99.90
12025;DHT22;6073;53.230;10.444;2023-11-19T01:19:59;5.50;99.90
12025;DHT22;6073;53.230;10.444;2023-11-19T01:22:24;5.50;99.90
12025;DHT22;6073;53.230;10.444;2023-11-19T01:24:50;5.50;99.90
12025;DHT22;6073;53.230;10.444;2023-11-19T01:27:17;5.50;99.90
12025;DHT22;6073;53.230;10.444;2023-11-19T01:29:43;5.50;99.90
12025;DHT22;6073;53.230;10.444;2023-11-19T01:32:08;5.50;99.90
12025;DHT22;6073;53.230;10.444;2023-11-19T01:34:34;5.50;99.90
12025;DHT22;6073;53.230;10.444;2023-11-19T01:36:59;5.50;99.90
12025;DHT22;6073;53.230;10.444;2023-11-19T01:39:25;5.50;99.90
12025;DHT22;6073;53.230;10.444;2023-11-19T01:41:50;5.50;99.90
12025;DHT22;6073;53.230;10.444;2023-11-19T01:44:16;5.60;99.90
12025;DHT22;6073;53.230;10.444;2023-11-19T01:46:43;5.60;99.90
12025;DHT22;6073;53.230;10.444;2023-11-19T01:49:09;5.60;99.90
12025;DHT22;6073;53.230;10.444;2023-11-19T01:51:37;5.60;99.90
12025;DHT22;6073;53.230;10.444;2023-11-19T01:54:03;5.60;99.90
12025;DHT22;6073;53.230;10.444;2023-11-19T01:56:29;5.60;99.90
12025;DHT22;6073;53.230;10.444;2023-11-19T01:58:56;5.50;99.90
12025;DHT22;6073;53.230;10.444;2023-11-19T02:01:22;5.50;99.90
12025;DHT22;6073;53.230;10.444;2023-11-19T02:03:48;5.50;99.90
12025;DHT22;6073;53.230;10.444;2023-11-19T02:06:14;5.60;99.90
12025;DHT22;6073;53.230;10.444;2023-11-19T02:08:40;5.60;99.90
12025;DHT22;6073;53.230;10.444;2023-11-19T02:11:07;5.60;99.90
12025;DHT22;6073;53.230;10.444;2023-11-19T02:13:32;5.60;99.90
12025;DHT22;6073;53.230;10.444;2023-11-19T02:15:59;5.60;99.90
12025;DHT22;6073;53.230;10.444;2023-11-19T02:18:26;5.60;99.90
12025;DHT22;6073;53.230;10.444;2023-11-19T02:20:58;5.60;99.90
12025;DHT22;6073;53.230;10.444;2023-11-19T02:23:28;5.60;99.90
12025;DHT22;6073;53.230;10.444;2023-11-19T02:26:18;5.60;99.90
12025;DHT22;6073;53.230;10.444;2023-11-19T02:28:45;5.70;99.90
12025;DHT22;6073;53.230;10.444;2023-11-19T02:31:11;5.70;99.90
12025;DHT22;6073;53.230;10.444;2023-11-19T02:33:40;5.70;99.90
12025;DHT22;6073;53.230;10.444;2023-11-19T02:36:06;5.70;99.90
12025;DHT22;6073;53.230;10.444;2023-11-19T02:38:33;5.70;99.90
12025;DHT22;6073;53.230;10.444;2023-11-19T02:40:58;5.70;99.90
12025;DHT22;6073;53.230;10.444;2023-11-19T02:43:24;5.70;99.90
12025;DHT22;6073;53.230;10.444;2023-11-19T02:45:50;5.70;99.90
12025;DHT22;6073;53.230;10.444;2023-11-19T02:48:16;5.70;99.90
12025;DHT22;6073;53.230;10.444;2023-11-19T02:50:44;5.80;99.90
12025;DHT22;6073;53.230;10.444;2023-11-19T02:53:11;5.80;99.90
12025;DHT22;6073;53.230;10.444;2023-11-19T02:55:38;5.80;99.90
12025;DHT22;6073;53.230;10.444;2023-11-19T02:58:06;5.80;99.90
12025;DHT22;6073;53.230;10.444;2023-11-19T03:00:45;5.90;99.90
12025;DHT22;6073;53.230;10.444;2023-11-19T03:03:17;5.90;99.90
12025;DHT22;6073;53.230;10.444;2023-11-19T03:05:46;6.00;99.90
12025;DHT22;6073;53.230;10.444;2023-11-19T03:08:12;6.00;99.90
12025;DHT22;6073;53.230;10.444;2023-11-19T03:10:38;6.00;99.90
12025;DHT22;6073;53.230;10.444;2023-11-19T03:13:04;6.00;99.90
12025;DHT22;6073;53.230;10.444;2023-11-19T03:15:30;6.00;99.90
12025;DHT22;6073;53.230;10.444;2023-11-19T03:17:55;6.10;99.90
12025;DHT22;6073;53.230;10.444;2023-11-19T03:20:20;6.00;99.90
12025;DHT22;6073;53.230;10.444;2023-11-19T03:22:46;6.00;99.90
12025;DHT22;6073;53.230;10.444;2023-11-19T03:25:12;6.10;99.90
12025;DHT22;6073;53.230;10.444;2023-11-19T03:27:38;6.10;99.90
12025;DHT22;6073;53.230;10.444;2023-11-19T03:30:08;6.10;99.90
12025;DHT22;6073;53.230;10.444;2023-11-19T03:32:35;6.00;99.90
12025;DHT22;6073;53.230;10.444;2023-11-19T03:35:01;6.10;99.90
12025;DHT22;6073;53.230;10.444;2023-11-19T03:37:27;6.10;99.90
12025;DHT22;6073;53.230;10.444;2023-11-19T03:39:57;6.10;99.90
12025;DHT22;6073;53.230;10.444;2023-11-19T03:42:28;6.10;99.90
12025;DHT22;6073;53.230;10.444;2023-11-19T03:44:53;6.10;99.90
12025;DHT22;6073;53.230;10.444;2023-11-19T03:47:19;6.10;99.90
12025;DHT22;6073;53.230;10.444;2023-11-19T03:49:49;6.10;99.90
12025;DHT22;6073;53.230;10.444;2023-11-19T03:52:15;6.20;99.90
12025;DHT22;6073;53.230;10.444;2023-11-19T03:54:41;6.20;99.90
12025;DHT22;6073;53.230;10.444;2023-11-19T03:57:06;6.20;99.90
12025;DHT22;6073;53.230;10.444;2023-11-19T03:59:32;6.20;99.90
12025;DHT22;6073;53.230;10.444;2023-11-19T04:01:58;6.30;99.90
12025;DHT22;6073;53.230;10.444;2023-11-19T04:04:26;6.30;99.90
12025;DHT22;6073;53.230;10.444;2023-11-19T04:06:52;6.30;99.90
12025;DHT22;6073;53.230;10.444;2023-11-19T04:09:18;6.30;99.90
12025;DHT22;6073;53.230;10.444;2023-11-19T04:11:43;6.40;99.90
12025;DHT22;6073;53.230;10.444;2023-11-19T04:14:09;6.40;99.90
12025;DHT22;6073;53.230;10.444;2023-11-19T04:16:35;6.50;99.90
12025;DHT22;6073;53.230;10.444;2023-11-19T04:19:00;6.50;99.90
12025;DHT22;6073;53.230;10.444;2023-11-19T04:21:26;6.50;99.90
12025;DHT22;6073;53.230;10.444;2023-11-19T04:23:52;6.50;99.90
12025;DHT22;6073;53.230;10.444;2023-11-19T04:26:17;6.50;99.90
12025;DHT22;6073;53.230;10.444;2023-11-19T04:28:43;6.60;99.90
12025;DHT22;6073;53.230;10.444;2023-11-19T04:31:08;6.60;99.90
12025;DHT22;6073;53.230;10.444;2023-11-19T04:33:34;6.70;99.90
12025;DHT22;6073;53.230;10.444;2023-11-19T04:36:00;6.70;99.90
12025;DHT22;6073;53.230;10.444;2023-11-19T04:38:26;6.80;99.90
12025;DHT22;6073;53.230;10.444;2023-11-19T04:40:52;6.90;99.90
12025;DHT22;6073;53.230;10.444;2023-11-19T04:43:18;6.90;99.90
12025;DHT22;6073;53.230;10.444;2023-11-19T04:45:44;6.90;99.90
12025;DHT22;6073;53.230;10.444;2023-11-19T04:48:10;6.90;99.90
12025;DHT22;6073;53.230;10.444;2023-11-19T04:50:35;6.90;99.90
12025;DHT22;6073;53.230;10.444;2023-11-19T04:53:01;7.00;99.90
12025;DHT22;6073;53.230;10.444;2023-11-19T04:55:28;7.10;99.90
12025;DHT22;6073;53.230;10.444;2023-11-19T04:57:54;7.20;99.90
12025;DHT22;6073;53.230;10.444;2023-11-19T05:00:20;7.20;99.90
12025;DHT22;6073;53.230;10.444;2023-11-19T05:02:46;7.20;99.90
12025;DHT22;6073;53.230;10.444;2023-11-19T05:05:12;7.20;99.90
12025;DHT22;6073;53.230;10.444;2023-11-19T05:07:38;7.20;99.90
12025;DHT22;6073;53.230;10.444;2023-11-19T05:10:04;7.30;99.90
12025;DHT22;6073;53.230;10.444;2023-11-19T05:12:31;7.30;99.90
12025;DHT22;6073;53.230;10.444;2023-11-19T05:14:57;7.40;99.90
12025;DHT22;6073;53.230;10.444;2023-11-19T05:17:23;7.40;99.90
12025;DHT22;6073;53.230;10.444;2023-11-19T05:19:48;7.50;99.90
12025;DHT22;6073;53.230;10.444;2023-11-19T05:22:14;7.50;99.90
12025;DHT22;6073;53.230;10.444;2023-11-19T05:24:40;7.50;99.90
12025;DHT22;6073;53.230;10.444;2023-11-19T05:27:06;7.50;99.90
12025;DHT22;6073;53.230;10.444;2023-11-19T05:29:33;7.50;99.90
12025;DHT22;6073;53.230;10.444;2023-11-19T05:31:59;7.50;99.90
12025;DHT22;6073;53.230;10.444;2023-11-19T05:34:24;7.50;99.90
12025;DHT22;6073;53.230;10.444;2023-11-19T05:36:50;7.60;99.90
12025;DHT22;6073;53.230;10.444;2023-11-19T05:39:17;7.60;99.90
12025;DHT22;6073;53.230;10.444;2023-11-19T05:41:44;7.70;99.90
12025;DHT22;6073;53.230;10.444;2023-11-19T05:44:09;7.70;99.90
12025;DHT22;6073;53.230;10.444;2023-11-19T05:46:35;7.70;99.90
12025;DHT22;6073;53.230;10.444;2023-11-19T05:49:05;7.80;99.90
12025;DHT22;6073;53.230;10.444;2023-11-19T05:51:31;7.80;99.90
12025;DHT22;6073;53.230;10.444;2023-11-19T05:53:56;7.90;99.90
12025;DHT22;6073;53.230;10.444;2023-11-19T05:56:22;7.90;99.90
12025;DHT22;6073;53.230;10.444;2023-11-19T05:58:48;7.90;99.90
12025;DHT22;6073;53.230;10.444;2023-11-19T06:01:14;8.00;99.90
12025;DHT22;6073;53.230;10.444;2023-11-19T06:03:40;8.00;99.90
12025;DHT22;6073;53.230;10.444;2023-11-19T06:06:06;8.10;99.90
12025;DHT22;6073;53.230;10.444;2023-11-19T06:08:32;8.10;99.90
12025;DHT22;6073;53.230;10.444;2023-11-19T06:10:58;8.20;99.90
12025;DHT22;6073;53.230;10.444;2023-11-19T06:13:23;8.30;99.90
12025;DHT22;6073;53.230;10.444;2023-11-19T06:15:50;8.30;99.90
12025;DHT22;6073;53.230;10.444;2023-11-19T06:18:16;8.30;99.90
12025;DHT22;6073;53.230;10.444;2023-11-19T06:20:42;8.30;99.90
12025;DHT22;6073;53.230;10.444;2023-11-19T06:23:08;8.30;99.90
12025;DHT22;6073;53.230;10.444;2023-11-19T06:25:34;8.30;99.90
12025;DHT22;6073;53.230;10.444;2023-11-19T06:28:00;8.40;99.90
12025;DHT22;6073;53.230;10.444;2023-11-19T06:30:26;8.40;99.90
12025;DHT22;6073;53.230;10.444;2023-11-19T06:32:53;8.50;99.90
12025;DHT22;6073;53.230;10.444;2023-11-19T06:35:19;8.50;99.90
12025;DHT22;6073;53.230;10.444;2023-11-19T06:37:44;8.60;99.90
12025;DHT22;6073;53.230;10.444;2023-11-19T06:40:10;8.60;99.90
12025;DHT22;6073;53.230;10.444;2023-11-19T06:42:37;8.90;99.90
12025;DHT22;6073;53.230;10.444;2023-11-19T06:45:04;9.00;99.90
12025;DHT22;6073;53.230;10.444;2023-11-19T06:47:29;9.00;99.90
12025;DHT22;6073;53.230;10.444;2023-11-19T06:49:55;9.00;99.90
12025;DHT22;6073;53.230;10.444;2023-11-19T06:52:20;9.10;99.90
12025;DHT22;6073;53.230;10.444;2023-11-19T06:54:47;9.10;99.90
12025;DHT22;6073;53.230;10.444;2023-11-19T06:57:13;9.20;99.90
12025;DHT22;6073;53.230;10.444;2023-11-19T06:59:38;9.30;99.90
12025;DHT22;6073;53.230;10.444;2023-11-19T07:02:04;9.30;99.90
12025;DHT22;6073;53.230;10.444;2023-11-19T07:04:30;9.50;99.90
12025;DHT22;6073;53.230;10.444;2023-11-19T07:06:56;9.50;99.90
12025;DHT22;6073;53.230;10.444;2023-11-19T07:09:22;9.60;99.90
12025;DHT22;6073;53.230;10.444;2023-11-19T07:11:48;9.80;99.90
12025;DHT22;6073;53.230;10.444;2023-11-19T07:14:16;9.90;99.90
12025;DHT22;6073;53.230;10.444;2023-11-19T07:16:41;10.00;99.90
12025;DHT22;6073;53.230;10.444;2023-11-19T07:19:08;10.00;99.90
12025;DHT22;6073;53.230;10.444;2023-11-19T07:21:33;10.20;99.90
12025;DHT22;6073;53.230;10.444;2023-11-19T07:23:59;10.20;99.90
12025;DHT22;6073;53.230;10.444;2023-11-19T07:26:25;10.30;99.90
12025;DHT22;6073;53.230;10.444;2023-11-19T07:28:51;10.40;99.90
12025;DHT22;6073;53.230;10.444;2023-11-19T07:31:16;10.40;99.90
12025;DHT22;6073;53.230;10.444;2023-11-19T07:33:45;10.50;99.90
12025;DHT22;6073;53.230;10.444;2023-11-19T07:36:11;10.50;99.90
12025;DHT22;6073;53.230;10.444;2023-11-19T07:38:37;10.50;99.90
12025;DHT22;6073;53.230;10.444;2023-11-19T07:41:04;10.50;99.90
12025;DHT22;6073;53.230;10.444;2023-11-19T07:43:30;10.60;99.90
12025;DHT22;6073;53.230;10.444;2023-11-19T07:45:56;10.60;99.90
12025;DHT22;6073;53.230;10.444;2023-11-19T07:48:24;10.60;99.90
12025;DHT22;6073;53.230;10.444;2023-11-19T07:50:50;10.70;99.90
12025;DHT22;6073;53.230;10.444;2023-11-19T07:53:16;10.70;99.90
12025;DHT22;6073;53.230;10.444;2023-11-19T07:55:42;10.70;99.90
12025;DHT22;6073;53.230;10.444;2023-11-19T07:58:10;10.80;99.90
12025;DHT22;6073;53.230;10.444;2023-11-19T08:00:35;10.80;99.90
12025;DHT22;6073;53.230;10.444;2023-11-19T08:03:01;10.80;99.90
12025;DHT22;6073;53.230;10.444;2023-11-19T08:05:26;10.90;99.90
12025;DHT22;6073;53.230;10.444;2023-11-19T08:07:52;10.90;99.90
12025;DHT22;6073;53.230;10.444;2023-11-19T08:10:20;10.90;99.90
12025;DHT22;6073;53.230;10.444;2023-11-19T08:12:46;11.00;99.90
12025;DHT22;6073;53.230;10.444;2023-11-19T08:15:12;11.00;99.90
12025;DHT22;6073;53.230;10.444;2023-11-19T08:17:37;11.00;99.90
12025;DHT22;6073;53.230;10.444;2023-11-19T08:20:03;11.10;99.90
12025;DHT22;6073;53.230;10.444;2023-11-19T08:22:30;11.20;99.90
12025;DHT22;6073;53.230;10.444;2023-11-19T08:24:56;11.40;99.90
12025;DHT22;6073;53.230;10.444;2023-11-19T08:27:22;11.60;99.90
12025;DHT22;6073;53.230;10.444;2023-11-19T08:29:53;11.70;99.90
12025;DHT22;6073;53.230;10.444;2023-11-19T08:32:20;11.70;99.90
12025;DHT22;6073;53.230;10.444;2023-11-19T08:34:46;11.60;99.90
12025;DHT22;6073;53.230;10.444;2023-11-19T08:37:11;11.60;99.90
12025;DHT22;6073;53.230;10.444;2023-11-19T08:39:38;11.50;99.90
12025;DHT22;6073;53.230;10.444;2023-11-19T08:42:04;11.50;99.90
12025;DHT22;6073;53.230;10.444;2023-11-19T08:44:29;11.50;99.90
12025;DHT22;6073;53.230;10.444;2023-11-19T08:46:55;11.50;99.90
12025;DHT22;6073;53.230;10.444;2023-11-19T08:49:20;11.50;99.90
12025;DHT22;6073;53.230;10.444;2023-11-19T08:51:46;11.40;99.90
12025;DHT22;6073;53.230;10.444;2023-11-19T08:54:12;11.50;99.90
12025;DHT22;6073;53.230;10.444;2023-11-19T08:56:38;11.50;99.90
12025;DHT22;6073;53.230;10.444;2023-11-19T08:59:04;11.50;99.90
12025;DHT22;6073;53.230;10.444;2023-11-19T09:01:30;11.50;99.90
12025;DHT22;6073;53.230;10.444;2023-11-19T09:03:55;11.40;99.90
12025;DHT22;6073;53.230;10.444;2023-11-19T09:06:21;11.40;99.90
12025;DHT22;6073;53.230;10.444;2023-11-19T09:08:46;11.40;99.90
12025;DHT22;6073;53.230;10.444;2023-11-19T09:11:12;11.40;99.90
12025;DHT22;6073;53.230;10.444;2023-11-19T09:13:38;11.40;99.90
12025;DHT22;6073;53.230;10.444;2023-11-19T09:16:03;11.40;99.90
12025;DHT22;6073;53.230;10.444;2023-11-19T09:18:30;11.40;99.90
12025;DHT22;6073;53.230;10.444;2023-11-19T09:20:55;11.40;99.90
12025;DHT22;6073;53.230;10.444;2023-11-19T09:23:21;11.30;99.90
12025;DHT22;6073;53.230;10.444;2023-11-19T09:25:46;11.40;99.90
12025;DHT22;6073;53.230;10.444;2023-11-19T09:28:12;11.30;99.90
12025;DHT22;6073;53.230;10.444;2023-11-19T09:30:39;11.30;99.90
12025;DHT22;6073;53.230;10.444;2023-11-19T09:33:05;11.40;99.90
12025;DHT22;6073;53.230;10.444;2023-11-19T09:35:30;11.50;99.90
12025;DHT22;6073;53.230;10.444;2023-11-19T09:37:56;11.60;99.90
12025;DHT22;6073;53.230;10.444;2023-11-19T09:40:21;11.60;99.90
12025;DHT22;6073;53.230;10.444;2023-11-19T09:42:47;11.60;99.90
12025;DHT22;6073;53.230;10.444;2023-11-19T09:45:15;11.70;99.90
12025;DHT22;6073;53.230;10.444;2023-11-19T09:47:43;11.70;99.90
12025;DHT22;6073;53.230;10.444;2023-11-19T09:50:16;11.70;99.90
12025;DHT22;6073;53.230;10.444;2023-11-19T09:52:41;11.70;99.90
12025;DHT22;6073;53.230;10.444;2023-11-19T09:55:07;11.80;99.90
12025;DHT22;6073;53.230;10.444;2023-11-19T09:57:34;11.80;99.90
12025;DHT22;6073;53.230;10.444;2023-11-19T10:00:03;11.70;99.90
12025;DHT22;6073;53.230;10.444;2023-11-19T10:02:31;11.70;99.90
12025;DHT22;6073;53.230;10.444;2023-11-19T10:04:59;11.70;99.90
12025;DHT22;6073;53.230;10.444;2023-11-19T10:07:25;11.80;99.90
12025;DHT22;6073;53.230;10.444;2023-11-19T10:09:51;11.80;99.90
12025;DHT22;6073;53.230;10.444;2023-11-19T10:12:16;11.80;99.90
12025;DHT22;6073;53.230;10.444;2023-11-19T10:14:43;11.80;99.90
12025;DHT22;6073;53.230;10.444;2023-11-19T10:17:09;11.80;99.90
12025;DHT22;6073;53.230;10.444;2023-11-19T10:19:34;11.80;99.90
12025;DHT22;6073;53.230;10.444;2023-11-19T10:22:06;11.80;99.90
12025;DHT22;6073;53.230;10.444;2023-11-19T10:24:33;11.80;99.90
12025;DHT22;6073;53.230;10.444;2023-11-19T10:27:02;11.90;99.90
12025;DHT22;6073;53.230;10.444;2023-11-19T10:29:30;11.90;99.90
12025;DHT22;6073;53.230;10.444;2023-11-19T10:31:56;11.90;99.90
12025;DHT22;6073;53.230;10.444;2023-11-19T10:34:26;11.90;99.90
12025;DHT22;6073;53.230;10.444;2023-11-19T10:36:53;11.90;99.90
12025;DHT22;6073;53.230;10.444;2023-11-19T10:39:19;11.90;99.90
12025;DHT22;6073;53.230;10.444;2023-11-19T10:41:46;11.80;99.90
12025;DHT22;6073;53.230;10.444;2023-11-19T10:44:11;11.90;99.90
12025;DHT22;6073;53.230;10.444;2023-11-19T10:46:41;11.90;99.90
12025;DHT22;6073;53.230;10.444;2023-11-19T10:49:10;11.90;99.90
12025;DHT22;6073;53.230;10.444;2023-11-19T10:51:36;11.90;99.90
12025;DHT22;6073;53.230;10.444;2023-11-19T10:54:03;11.90;99.90
12025;DHT22;6073;53.230;10.444;2023-11-19T10:56:32;11.90;99.90
12025;DHT22;6073;53.230;10.444;2023-11-19T10:58:59;12.00;99.90
12025;DHT22;6073;53.230;10.444;2023-11-19T11:01:29;12.00;99.90
12025;DHT22;6073;53.230;10.444;2023-11-19T11:03:59;12.10;99.90
12025;DHT22;6073;53.230;10.444;2023-11-19T11:06:27;12.10;99.90
12025;DHT22;6073;53.230;10.444;2023-11-19T11:08:53;12.00;99.90
12025;DHT22;6073;53.230;10.444;2023-11-19T11:11:19;11.90;99.90
12025;DHT22;6073;53.230;10.444;2023-11-19T11:13:59;11.90;99.90
12025;DHT22;6073;53.230;10.444;2023-11-19T11:16:27;11.90;99.90
12025;DHT22;6073;53.230;10.444;2023-11-19T11:18:54;11.80;99.90
12025;DHT22;6073;53.230;10.444;2023-11-19T11:21:24;11.80;99.90
12025;DHT22;6073;53.230;10.444;2023-11-19T11:24:14;11.80;99.90
12025;DHT22;6073;53.230;10.444;2023-11-19T11:32:45;12.10;99.90
12025;DHT22;6073;53.230;10.444;2023-11-19T11:38:06;12.30;99.90
12025;DHT22;6073;53.230;10.444;2023-11-19T11:40:32;12.30;99.90
12025;DHT22;6073;53.230;10.444;2023-11-19T11:42:58;12.20;99.90
12025;DHT22;6073;53.230;10.444;2023-11-19T11:45:38;12.20;99.90
12025;DHT22;6073;53.230;10.444;2023-11-19T11:48:05;12.30;99.90
12025;DHT22;6073;53.230;10.444;2023-11-19T11:50:35;12.40;99.90
12025;DHT22;6073;53.230;10.444;2023-11-19T11:55:51;12.60;99.90
12025;DHT22;6073;53.230;10.444;2023-11-19T11:58:30;12.50;99.90
12025;DHT22;6073;53.230;10.444;2023-11-19T12:00:58;12.50;99.90
12025;DHT22;6073;53.230;10.444;2023-11-19T12:03:27;12.40;99.90
12025;DHT22;6073;53.230;10.444;2023-11-19T12:05:53;12.20;99.90
12025;DHT22;6073;53.230;10.444;2023-11-19T12:08:20;12.20;99.90
12025;DHT22;6073;53.230;10.444;2023-11-19T12:10:50;12.10;99.90
12025;DHT22;6073;53.230;10.444;2023-11-19T12:13:17;12.00;99.90
12025;DHT22;6073;53.230;10.444;2023-11-19T12:18:28;12.20;99.90
12025;DHT22;6073;53.230;10.444;2023-11-19T12:20:55;12.30;99.90
12025;DHT22;6073;53.230;10.444;2023-11-19T12:23:22;12.40;99.90
12025;DHT22;6073;53.230;10.444;2023-11-19T12:25:47;12.30;99.90
12025;DHT22;6073;53.230;10.444;2023-11-19T12:28:13;12.30;99.90
12025;DHT22;6073;53.230;10.444;2023-11-19T12:30:39;12.30;99.90
12025;DHT22;6073;53.230;10.444;2023-11-19T12:33:09;12.30;99.90
12025;DHT22;6073;53.230;10.444;2023-11-19T12:35:39;12.40;99.90
12025;DHT22;6073;53.230;10.444;2023-11-19T12:38:05;12.40;99.90
12025;DHT22;6073;53.230;10.444;2023-11-19T12:40:31;12.40;99.90
12025;DHT22;6073;53.230;10.444;2023-11-19T12:42:56;12.40;99.90
12025;DHT22;6073;53.230;10.444;2023-11-19T12:45:37;12.30;99.90
12025;DHT22;6073;53.230;10.444;2023-11-19T12:48:05;12.30;99.90
12025;DHT22;6073;53.230;10.444;2023-11-19T12:50:50;12.30;99.90
12025;DHT22;6073;53.230;10.444;2023-11-19T12:53:17;12.30;99.90
12025;DHT22;6073;53.230;10.444;2023-11-19T12:55:42;12.20;99.90
12025;DHT22;6073;53.230;10.444;2023-11-19T12:58:08;12.20;99.90
12025;DHT22;6073;53.230;10.444;2023-11-19T13:00:34;12.10;99.90
12025;DHT22;6073;53.230;10.444;2023-11-19T13:02:59;12.10;99.90
12025;DHT22;6073;53.230;10.444;2023-11-19T13:08:04;12.10;99.90
12025;DHT22;6073;53.230;10.444;2023-11-19T13:13:16;12.10;99.90
12025;DHT22;6073;53.230;10.444;2023-11-19T13:15:41;12.10;99.90
12025;DHT22;6073;53.230;10.444;2023-11-19T13:18:08;12.10;99.90
12025;DHT22;6073;53.230;10.444;2023-11-19T13:20:33;12.10;99.90
12025;DHT22;6073;53.230;10.444;2023-11-19T13:23:01;12.00;99.90
12025;DHT22;6073;53.230;10.444;2023-11-19T13:25:27;12.00;99.90
12025;DHT22;6073;53.230;10.444;2023-11-19T13:27:53;11.90;99.90
12025;DHT22;6073;53.230;10.444;2023-11-19T13:30:20;11.90;99.90
12025;DHT22;6073;53.230;10.444;2023-11-19T13:32:45;11.80;99.90
12025;DHT22;6073;53.230;10.444;2023-11-19T13:35:12;11.80;99.90
12025;DHT22;6073;53.230;10.444;2023-11-19T13:37:38;11.70;99.90
12025;DHT22;6073;53.230;10.444;2023-11-19T13:40:04;11.60;99.90
12025;DHT22;6073;53.230;10.444;2023-11-19T13:42:30;11.60;99.90
12025;DHT22;6073;53.230;10.444;2023-11-19T13:44:56;11.50;99.90
12025;DHT22;6073;53.230;10.444;2023-11-19T13:47:21;11.60;99.90
12025;DHT22;6073;53.230;10.444;2023-11-19T13:49:47;11.50;99.90
12025;DHT22;6073;53.230;10.444;2023-11-19T13:52:13;11.70;99.90
12025;DHT22;6073;53.230;10.444;2023-11-19T13:54:38;11.70;99.90
12025;DHT22;6073;53.230;10.444;2023-11-19T13:57:04;11.70;99.90
12025;DHT22;6073;53.230;10.444;2023-11-19T13:59:31;11.70;99.90
12025;DHT22;6073;53.230;10.444;2023-11-19T14:01:59;11.70;99.90
12025;DHT22;6073;53.230;10.444;2023-11-19T14:04:25;11.70;99.90
12025;DHT22;6073;53.230;10.444;2023-11-19T14:06:50;11.60;99.90
12025;DHT22;6073;53.230;10.444;2023-11-19T14:09:16;11.50;99.90
12025;DHT22;6073;53.230;10.444;2023-11-19T14:11:43;11.50;99.90
12025;DHT22;6073;53.230;10.444;2023-11-19T14:14:08;11.50;99.90
12025;DHT22;6073;53.230;10.444;2023-11-19T14:16:36;11.50;99.90
12025;DHT22;6073;53.230;10.444;2023-11-19T14:19:22;11.50;99.90
12025;DHT22;6073;53.230;10.444;2023-11-19T14:21:48;11.40;99.90
12025;DHT22;6073;53.230;10.444;2023-11-19T14:24:13;11.30;99.90
12025;DHT22;6073;53.230;10.444;2023-11-19T14:26:39;11.20;99.90
12025;DHT22;6073;53.230;10.444;2023-11-19T14:29:04;11.20;99.90
12025;DHT22;6073;53.230;10.444;2023-11-19T14:31:30;11.10;99.90
12025;DHT22;6073;53.230;10.444;2023-11-19T14:33:55;11.20;99.90
12025;DHT22;6073;53.230;10.444;2023-11-19T14:36:21;11.10;99.90
12025;DHT22;6073;53.230;10.444;2023-11-19T14:38:47;11.20;99.90
12025;DHT22;6073;53.230;10.444;2023-11-19T14:41:12;11.10;99.90
12025;DHT22;6073;53.230;10.444;2023-11-19T14:43:39;11.20;99.90
12025;DHT22;6073;53.230;10.444;2023-11-19T14:46:05;11.20;99.90
12025;DHT22;6073;53.230;10.444;2023-11-19T14:48:31;11.20;99.90
12025;DHT22;6073;53.230;10.444;2023-11-19T14:50:57;11.30;99.90
12025;DHT22;6073;53.230;10.444;2023-11-19T14:53:23;11.30;99.90
12025;DHT22;6073;53.230;10.444;2023-11-19T14:55:48;11.20;99.90
12025;DHT22;6073;53.230;10.444;2023-11-19T14:58:14;11.10;99.90
12025;DHT22;6073;53.230;10.444;2023-11-19T15:00:39;11.20;99.90
12025;DHT22;6073;53.230;10.444;2023-11-19T15:03:05;11.10;99.90
12025;DHT22;6073;53.230;10.444;2023-11-19T15:05:31;11.10;99.90
12025;DHT22;6073;53.230;10.444;2023-11-19T15:07:57;11.10;99.90
12025;DHT22;6073;53.230;10.444;2023-11-19T15:10:23;11.00;99.90
12025;DHT22;6073;53.230;10.444;2023-11-19T15:12:50;10.90;99.90
12025;DHT22;6073;53.230;10.444;2023-11-19T15:15:15;10.90;99.90
12025;DHT22;6073;53.230;10.444;2023-11-19T15:17:41;10.80;99.90
12025;DHT22;6073;53.230;10.444;2023-11-19T15:20:07;10.80;99.90
12025;DHT22;6073;53.230;10.444;2023-11-19T15:22:33;10.70;99.90
12025;DHT22;6073;53.230;10.444;2023-11-19T15:24:58;10.70;99.90
12025;DHT22;6073;53.230;10.444;2023-11-19T15:27:24;10.60;99.90
12025;DHT22;6073;53.230;10.444;2023-11-19T15:29:49;10.50;99.90
12025;DHT22;6073;53.230;10.444;2023-11-19T15:32:15;10.60;99.90
12025;DHT22;6073;53.230;10.444;2023-11-19T15:34:40;10.50;99.90
12025;DHT22;6073;53.230;10.444;2023-11-19T15:37:07;10.50;99.90
12025;DHT22;6073;53.230;10.444;2023-11-19T15:39:33;10.50;99.90
12025;DHT22;6073;53.230;10.444;2023-11-19T15:42:01;10.40;99.90
12025;DHT22;6073;53.230;10.444;2023-11-19T15:44:27;10.40;99.90
12025;DHT22;6073;53.230;10.444;2023-11-19T15:46:53;10.40;99.90
12025;DHT22;6073;53.230;10.444;2023-11-19T15:49:19;10.40;99.90
12025;DHT22;6073;53.230;10.444;2023-11-19T15:51:44;10.30;99.90
12025;DHT22;6073;53.230;10.444;2023-11-19T15:54:10;10.20;99.90